Time;durP1;ratioP1;P1;durP2;ratioP2;P2;SDS_P1;SDS_P2;PMS_P1;PMS_P2;Temp;Humidity;BMP_temperature;BMP_pressure;BME280_temperature;BME280_humidity;BME280_pressure;Samples;Min_cycle;Max_cycle;Signal;HPM_P1;HPM_P2
2022/06/26 00:01:01;;;;;;;3.65;2.33;;;19.30;92.30;;;;;;5010623;28;20032;-81
2022/06/26 00:03:28;;;;;;;4.37;2.10;;;19.20;92.30;;;;;;5008393;28;20244;-81
2022/06/26 00:05:54;;;;;;;3.38;2.17;;;19.20;92.30;;;;;;5006675;28;20581;-81
2022/06/26 00:08:21;;;;;;;4.10;2.00;;;19.20;92.30;;;;;;4985305;28;20044;-82
2022/06/26 00:10:47;;;;;;;3.92;2.10;;;19.20;92.20;;;;;;5007794;28;20393;-81
2022/06/26 00:13:13;;;;;;;4.03;2.35;;;19.20;92.20;;;;;;4973992;28;20079;-82
2022/06/26 00:15:39;;;;;;;3.30;1.90;;;19.10;92.20;;;;;;4988396;28;20043;-81
2022/06/26 00:18:06;;;;;;;3.20;2.13;;;19.10;92.20;;;;;;5008221;28;20064;-81
2022/06/26 00:20:32;;;;;;;3.33;2.10;;;19.10;92.20;;;;;;5004119;28;20155;-82
2022/06/26 00:22:57;;;;;;;3.60;1.90;;;19.00;92.10;;;;;;5007731;28;20036;-81
2022/06/26 00:25:23;;;;;;;3.13;2.17;;;19.00;92.10;;;;;;5002567;28;20048;-82
2022/06/26 00:27:48;;;;;;;3.72;2.17;;;19.00;92.00;;;;;;4973425;28;20036;-82
2022/06/26 00:30:14;;;;;;;4.60;2.60;;;19.00;91.90;;;;;;5022010;28;20079;-82
2022/06/26 00:32:40;;;;;;;3.60;2.13;;;18.90;91.80;;;;;;5016996;28;20406;-81
2022/06/26 00:35:07;;;;;;;3.17;2.13;;;18.90;91.70;;;;;;5014097;28;20041;-82
2022/06/26 00:37:33;;;;;;;3.67;2.30;;;18.80;91.70;;;;;;5003127;28;20037;-81
2022/06/26 00:39:58;;;;;;;3.38;2.10;;;18.70;91.70;;;;;;4994470;28;20040;-81
2022/06/26 00:42:24;;;;;;;2.67;1.90;;;18.70;91.70;;;;;;5004583;28;20030;-81
2022/06/26 00:44:52;;;;;;;4.03;2.13;;;18.70;91.80;;;;;;5014422;28;20640;-81
2022/06/26 00:47:19;;;;;;;3.38;2.08;;;18.60;91.80;;;;;;4994441;28;20144;-82
2022/06/26 00:49:44;;;;;;;5.87;2.07;;;18.60;91.90;;;;;;5012904;28;20029;-82
2022/06/26 00:52:11;;;;;;;3.47;2.47;;;18.60;92.00;;;;;;4994577;28;20037;-81
2022/06/26 00:54:37;;;;;;;3.58;1.90;;;18.50;92.00;;;;;;4997604;28;20125;-81
2022/06/26 00:57:03;;;;;;;3.88;2.10;;;18.50;92.10;;;;;;5004177;28;20508;-82
2022/06/26 00:59:30;;;;;;;3.90;2.30;;;18.40;92.00;;;;;;4974316;28;20302;-81
2022/06/26 01:01:56;;;;;;;3.83;2.20;;;18.40;92.00;;;;;;5004342;28;20357;-81
2022/06/26 01:04:21;;;;;;;5.53;2.20;;;18.40;92.00;;;;;;4988933;28;20361;-81
2022/06/26 01:06:49;;;;;;;4.37;2.50;;;18.40;92.00;;;;;;5012522;28;20045;-81
2022/06/26 01:09:15;;;;;;;3.85;2.30;;;18.30;92.00;;;;;;5006308;28;20445;-81
2022/06/26 01:11:42;;;;;;;2.83;1.93;;;18.30;92.00;;;;;;4992286;28;20065;-81
2022/06/26 01:14:08;;;;;;;3.97;2.30;;;18.30;92.00;;;;;;4998865;28;20038;-81
2022/06/26 01:16:34;;;;;;;4.80;2.20;;;18.20;92.00;;;;;;4976376;28;20126;-81
2022/06/26 01:19:01;;;;;;;5.68;2.30;;;18.20;92.20;;;;;;5024922;28;20054;-81
2022/06/26 01:21:27;;;;;;;5.10;2.40;;;18.20;92.10;;;;;;4988784;28;20284;-81
2022/06/26 01:23:55;;;;;;;3.63;2.10;;;18.10;92.20;;;;;;4986296;28;20030;-82
2022/06/26 01:26:21;;;;;;;4.95;2.10;;;18.10;92.20;;;;;;4970986;28;20076;-81
2022/06/26 01:28:47;;;;;;;4.80;2.28;;;18.10;92.30;;;;;;4988692;28;20026;-81
2022/06/26 01:31:14;;;;;;;4.30;2.00;;;18.10;92.30;;;;;;4974051;28;20392;-81
2022/06/26 01:33:39;;;;;;;3.90;2.13;;;18.10;92.30;;;;;;5015320;28;20104;-81
2022/06/26 01:36:06;;;;;;;4.35;2.08;;;18.00;92.40;;;;;;4997313;28;20141;-82
2022/06/26 01:38:31;;;;;;;4.25;2.47;;;18.00;92.40;;;;;;5011096;28;20235;-81
2022/06/26 01:40:57;;;;;;;4.30;2.10;;;18.00;92.40;;;;;;5003096;28;20049;-81
2022/06/26 01:43:28;;;;;;;4.60;2.20;;;18.00;92.40;;;;;;4990109;28;20282;-81
2022/06/26 01:45:56;;;;;;;4.22;2.33;;;18.00;92.30;;;;;;4998264;28;20490;-81
2022/06/26 01:48:24;;;;;;;5.13;2.30;;;18.00;92.30;;;;;;5009164;28;20464;-81
2022/06/26 01:50:50;;;;;;;4.55;2.15;;;17.90;92.20;;;;;;5016741;28;20406;-81
2022/06/26 01:53:16;;;;;;;4.50;2.33;;;17.90;92.20;;;;;;5026430;28;20040;-82
2022/06/26 01:55:42;;;;;;;3.67;2.03;;;17.80;92.10;;;;;;4981126;28;20021;-81
2022/06/26 01:58:09;;;;;;;3.70;2.03;;;17.80;92.10;;;;;;5018786;28;20798;-82
2022/06/26 02:00:37;;;;;;;3.97;2.10;;;17.80;92.10;;;;;;4976625;28;20048;-82
2022/06/26 02:03:04;;;;;;;4.47;2.25;;;17.70;92.00;;;;;;4981748;28;20042;-82
2022/06/26 02:05:30;;;;;;;4.22;2.08;;;17.70;92.00;;;;;;4986132;28;20206;-81
2022/06/26 02:07:56;;;;;;;3.33;2.07;;;17.70;92.00;;;;;;5017050;28;20034;-81
2022/06/26 02:15:54;;;;;;;3.35;2.38;;;17.60;91.90;;;;;;5015121;28;20060;-82
2022/06/26 02:18:20;;;;;;;3.88;1.98;;;17.60;91.90;;;;;;4973145;28;20687;-81
2022/06/26 02:20:46;;;;;;;3.93;2.13;;;17.50;91.90;;;;;;4999160;28;20033;-81
2022/06/26 02:23:13;;;;;;;3.42;2.00;;;17.50;91.90;;;;;;5009817;28;20704;-82
2022/06/26 02:25:39;;;;;;;3.90;1.90;;;17.40;91.90;;;;;;5017025;28;20060;-81
2022/06/26 02:28:05;;;;;;;4.07;2.08;;;17.40;91.90;;;;;;5003992;28;20037;-81
2022/06/26 02:30:31;;;;;;;3.60;2.10;;;17.40;91.90;;;;;;4994455;28;20281;-82
2022/06/26 02:32:57;;;;;;;3.33;2.08;;;17.40;91.90;;;;;;4993381;28;20133;-81
2022/06/26 02:35:24;;;;;;;4.35;2.13;;;17.30;91.90;;;;;;4996556;28;20098;-81
2022/06/26 02:37:51;;;;;;;3.83;2.10;;;17.30;91.90;;;;;;4975839;28;20061;-81
2022/06/26 02:40:17;;;;;;;4.55;2.10;;;17.20;91.90;;;;;;5017534;28;20041;-81
2022/06/26 02:42:43;;;;;;;4.80;1.93;;;17.20;91.90;;;;;;4990355;28;20030;-81
2022/06/26 02:45:09;;;;;;;3.60;1.88;;;17.20;91.90;;;;;;5004050;28;20061;-81
2022/06/26 02:47:35;;;;;;;3.85;2.20;;;17.10;91.80;;;;;;4994132;28;25589;-81
2022/06/26 02:50:02;;;;;;;5.20;2.10;;;17.10;91.90;;;;;;4999129;28;20191;-81
2022/06/26 02:52:29;;;;;;;4.57;2.15;;;17.10;92.00;;;;;;5008450;28;20117;-81
2022/06/26 02:54:54;;;;;;;3.83;2.30;;;17.10;92.10;;;;;;5001277;28;20033;-81
2022/06/26 02:57:20;;;;;;;4.03;2.10;;;17.10;92.10;;;;;;5010115;28;20037;-81
2022/06/26 02:59:46;;;;;;;4.80;2.37;;;17.00;92.20;;;;;;5004919;28;20076;-81
2022/06/26 03:02:11;;;;;;;5.78;2.60;;;17.00;92.20;;;;;;5011068;28;20034;-81
2022/06/26 03:04:37;;;;;;;6.20;2.47;;;17.00;92.30;;;;;;5009105;28;20311;-81
2022/06/26 03:07:03;;;;;;;5.55;2.65;;;17.00;92.30;;;;;;5000896;28;20036;-81
2022/06/26 03:09:29;;;;;;;6.83;2.73;;;16.90;92.30;;;;;;5009267;28;20426;-81
2022/06/26 03:11:55;;;;;;;7.15;2.65;;;16.90;92.30;;;;;;5033521;28;20037;-81
2022/06/26 03:14:20;;;;;;;6.50;2.70;;;16.90;92.30;;;;;;5005725;28;20770;-81
2022/06/26 03:16:46;;;;;;;6.20;2.50;;;16.90;92.30;;;;;;4997202;28;20021;-81
2022/06/26 03:19:12;;;;;;;5.07;2.53;;;16.90;92.30;;;;;;4973856;28;20069;-81
2022/06/26 03:21:38;;;;;;;6.27;2.83;;;16.90;92.30;;;;;;5031265;28;20289;-81
2022/06/26 03:24:04;;;;;;;6.28;2.63;;;16.80;92.20;;;;;;5007456;28;20037;-81
2022/06/26 03:26:34;;;;;;;5.70;2.60;;;16.80;92.20;;;;;;5009678;28;20464;-81
2022/06/26 03:29:01;;;;;;;6.20;2.70;;;16.80;92.20;;;;;;5006197;28;20552;-81
2022/06/26 03:31:27;;;;;;;7.25;2.92;;;16.80;92.30;;;;;;5003385;28;20244;-81
2022/06/26 03:33:54;;;;;;;5.95;3.05;;;16.70;92.30;;;;;;4992850;28;20269;-81
2022/06/26 03:36:20;;;;;;;6.05;2.65;;;16.70;92.30;;;;;;4994530;28;20098;-81
2022/06/26 03:38:46;;;;;;;5.15;2.55;;;16.70;92.30;;;;;;5011942;28;20041;-81
2022/06/26 03:41:12;;;;;;;6.83;2.70;;;16.70;92.50;;;;;;5009864;28;20037;-81
2022/06/26 03:43:37;;;;;;;7.28;2.92;;;16.70;92.50;;;;;;5034832;28;20445;-81
2022/06/26 03:46:03;;;;;;;8.23;3.00;;;16.70;92.70;;;;;;5020248;28;20112;-81
2022/06/26 03:48:30;;;;;;;8.10;2.72;;;16.70;92.70;;;;;;5025983;28;20029;-81
2022/06/26 03:50:56;;;;;;;5.95;2.67;;;16.70;92.80;;;;;;4989802;28;20604;-81
2022/06/26 03:53:22;;;;;;;7.05;2.78;;;16.70;92.80;;;;;;4990491;28;20548;-81
2022/06/26 03:55:48;;;;;;;6.10;2.90;;;16.70;92.90;;;;;;4994041;28;20445;-81
2022/06/26 03:58:13;;;;;;;6.97;2.90;;;16.70;92.90;;;;;;4998324;28;20578;-81
2022/06/26 04:00:39;;;;;;;7.33;3.00;;;16.70;92.80;;;;;;4992467;28;21249;-81
2022/06/26 04:03:06;;;;;;;5.25;2.33;;;16.70;92.80;;;;;;4999601;28;20070;-81
2022/06/26 04:05:33;;;;;;;6.57;2.90;;;16.70;92.80;;;;;;4991904;28;20061;-81
2022/06/26 04:07:59;;;;;;;6.07;2.50;;;16.70;93.10;;;;;;5003412;28;20036;-81
2022/06/26 04:10:25;;;;;;;6.40;2.72;;;16.70;92.80;;;;;;5016590;28;20262;-81
2022/06/26 04:12:51;;;;;;;5.15;2.53;;;16.70;92.80;;;;;;4991940;28;20064;-81
2022/06/26 04:15:17;;;;;;;7.27;2.70;;;16.70;92.80;;;;;;5009445;28;20556;-81
2022/06/26 04:17:43;;;;;;;4.70;2.25;;;16.70;92.70;;;;;;5015566;28;20053;-81
2022/06/26 04:20:09;;;;;;;6.18;2.53;;;16.70;92.70;;;;;;5003092;28;20595;-81
2022/06/26 04:22:35;;;;;;;5.15;2.55;;;16.70;92.70;;;;;;4995124;28;20034;-81
2022/06/26 04:25:02;;;;;;;4.87;2.23;;;16.70;92.70;;;;;;4992506;28;20043;-81
2022/06/26 04:27:28;;;;;;;6.13;2.47;;;16.70;92.80;;;;;;5031548;28;20558;-81
2022/06/26 04:29:53;;;;;;;5.72;2.28;;;16.70;92.80;;;;;;5019583;28;20061;-81
2022/06/26 04:32:19;;;;;;;5.97;2.57;;;16.70;92.90;;;;;;4988106;28;20033;-81
2022/06/26 04:34:44;;;;;;;6.67;2.47;;;16.70;93.00;;;;;;5001341;28;20048;-81
2022/06/26 04:37:10;;;;;;;6.18;2.45;;;16.70;93.10;;;;;;4994206;28;20492;-81
2022/06/26 04:39:36;;;;;;;6.17;2.43;;;16.60;93.20;;;;;;5004553;28;20156;-81
2022/06/26 04:42:01;;;;;;;5.43;2.22;;;16.70;93.60;;;;;;5003594;28;20463;-81
2022/06/26 04:44:27;;;;;;;5.37;1.97;;;16.70;93.50;;;;;;5002042;28;20061;-81
2022/06/26 04:46:53;;;;;;;4.57;2.13;;;16.70;93.60;;;;;;4995858;28;20391;-81
2022/06/26 04:49:18;;;;;;;5.40;2.23;;;16.70;93.80;;;;;;4975044;28;20330;-81
2022/06/26 04:51:44;;;;;;;5.43;2.33;;;16.80;94.00;;;;;;5013826;28;20120;-81
2022/06/26 04:54:10;;;;;;;5.80;2.20;;;16.80;94.10;;;;;;4970487;28;20499;-81
2022/06/26 04:56:36;;;;;;;4.32;2.30;;;16.90;94.30;;;;;;4999022;28;20041;-80
2022/06/26 04:59:03;;;;;;;5.47;2.35;;;17.00;94.40;;;;;;5008263;28;20038;-81
2022/06/26 05:01:29;;;;;;;4.87;2.10;;;17.00;94.50;;;;;;5010181;28;20133;-81
2022/06/26 05:03:55;;;;;;;6.05;2.38;;;17.10;94.50;;;;;;4988925;28;22672;-81
2022/06/26 05:06:22;;;;;;;4.47;2.20;;;17.20;94.60;;;;;;5023558;28;20034;-81
2022/06/26 05:08:48;;;;;;;5.90;2.40;;;17.20;94.60;;;;;;4995383;28;20136;-81
2022/06/26 05:11:14;;;;;;;4.80;2.40;;;17.30;94.70;;;;;;5026548;28;20311;-81
2022/06/26 05:13:40;;;;;;;4.63;2.28;;;17.30;94.70;;;;;;4973262;28;20240;-81
2022/06/26 05:16:06;;;;;;;5.20;2.42;;;17.40;94.70;;;;;;4993969;28;20499;-81
2022/06/26 05:18:31;;;;;;;3.90;2.27;;;17.40;94.70;;;;;;4996064;28;20057;-81
2022/06/26 05:20:57;;;;;;;4.63;2.05;;;17.50;94.70;;;;;;5009120;28;20207;-81
2022/06/26 05:23:24;;;;;;;3.97;2.17;;;17.50;94.70;;;;;;5006179;28;20034;-81
2022/06/26 05:25:51;;;;;;;4.18;2.20;;;17.60;94.80;;;;;;4999282;28;20348;-81
2022/06/26 05:28:17;;;;;;;4.80;1.97;;;17.60;94.70;;;;;;5008458;28;20470;-81
2022/06/26 05:30:43;;;;;;;4.45;2.40;;;17.60;94.70;;;;;;4979304;28;20033;-81
2022/06/26 05:33:09;;;;;;;4.32;2.10;;;17.70;94.70;;;;;;5012790;28;20099;-81
2022/06/26 05:35:34;;;;;;;4.30;2.03;;;17.70;94.60;;;;;;5017128;28;20089;-81
2022/06/26 05:38:00;;;;;;;4.63;2.30;;;17.80;94.70;;;;;;5006888;28;20834;-81
2022/06/26 05:40:26;;;;;;;4.50;2.17;;;17.80;95.00;;;;;;4979017;28;20502;-82
2022/06/26 05:42:56;;;;;;;3.93;1.93;;;17.80;94.70;;;;;;4996661;28;20131;-81
2022/06/26 05:45:22;;;;;;;3.83;2.20;;;17.90;94.70;;;;;;5003445;28;20510;-82
2022/06/26 05:47:48;;;;;;;4.60;2.10;;;17.90;94.70;;;;;;5028779;28;20052;-82
2022/06/26 05:50:14;;;;;;;5.97;2.28;;;18.00;95.10;;;;;;5010455;28;20091;-82
2022/06/26 05:52:39;;;;;;;3.93;2.00;;;18.00;94.80;;;;;;4977321;28;20037;-82
2022/06/26 05:55:06;;;;;;;5.85;2.30;;;18.00;94.80;;;;;;4973820;28;20120;-82
2022/06/26 05:57:31;;;;;;;3.63;2.10;;;18.10;94.70;;;;;;5006294;28;20069;-82
2022/06/26 05:59:57;;;;;;;3.65;2.00;;;18.20;94.70;;;;;;4980296;28;20289;-82
2022/06/26 06:02:23;;;;;;;4.60;2.27;;;18.20;94.70;;;;;;4990904;28;20033;-81
2022/06/26 06:04:49;;;;;;;4.45;2.58;;;18.20;94.60;;;;;;4982203;28;20439;-81
2022/06/26 06:07:14;;;;;;;4.88;2.00;;;18.30;94.60;;;;;;4999936;28;20087;-81
2022/06/26 06:09:40;;;;;;;3.40;2.20;;;18.30;94.50;;;;;;4997168;28;20183;-82
2022/06/26 06:12:06;;;;;;;4.37;2.20;;;18.30;94.50;;;;;;5006728;28;20061;-81
2022/06/26 06:14:32;;;;;;;4.63;1.77;;;18.30;94.50;;;;;;4987461;28;20033;-81
2022/06/26 06:17:35;;;;;;;3.95;2.05;;;18.40;94.50;;;;;;4972428;28;23178;-81
2022/06/26 06:19:43;;;;;;;4.57;2.38;;;18.40;94.50;;;;;;4997462;28;20045;-82
2022/06/26 06:22:08;;;;;;;3.90;2.00;;;18.40;94.50;;;;;;5006180;28;20049;-81
2022/06/26 06:24:34;;;;;;;3.20;2.00;;;18.40;94.50;;;;;;5014576;28;20041;-82
2022/06/26 06:26:59;;;;;;;4.72;2.28;;;18.50;94.60;;;;;;4975929;28;20517;-81
2022/06/26 06:29:25;;;;;;;4.17;2.20;;;18.50;94.70;;;;;;5014129;28;20103;-82
2022/06/26 06:31:50;;;;;;;3.90;2.17;;;18.50;94.60;;;;;;4989958;28;20267;-80
2022/06/26 06:34:16;;;;;;;4.17;2.30;;;18.50;94.60;;;;;;5011414;28;20669;-82
2022/06/26 06:36:42;;;;;;;4.30;2.20;;;18.60;94.60;;;;;;4980421;28;20714;-81
2022/06/26 06:39:07;;;;;;;4.90;2.15;;;18.60;94.70;;;;;;4986678;28;20537;-82
2022/06/26 06:41:33;;;;;;;3.67;2.03;;;18.60;94.80;;;;;;5009982;28;20041;-84
2022/06/26 06:43:58;;;;;;;4.07;2.10;;;18.70;94.90;;;;;;4983827;28;20037;-85
2022/06/26 06:46:24;;;;;;;5.03;2.10;;;18.80;94.80;;;;;;5007188;28;20071;-85
2022/06/26 06:48:50;;;;;;;4.23;2.13;;;18.80;94.80;;;;;;5008266;28;20156;-84
2022/06/26 06:51:15;;;;;;;4.80;2.25;;;18.80;94.70;;;;;;5002131;28;20040;-84
2022/06/26 06:53:41;;;;;;;3.17;2.17;;;18.80;94.60;;;;;;5020953;28;20049;-85
2022/06/26 06:56:07;;;;;;;4.57;2.30;;;18.90;94.50;;;;;;5019561;28;20037;-85
2022/06/26 06:58:32;;;;;;;4.67;2.33;;;18.90;94.40;;;;;;4993096;28;20067;-85
2022/06/26 07:00:58;;;;;;;3.67;2.10;;;18.90;94.30;;;;;;5005723;28;20071;-85
2022/06/26 07:03:24;;;;;;;4.63;2.20;;;18.90;94.20;;;;;;5011556;28;20119;-85
2022/06/26 07:05:49;;;;;;;4.63;2.40;;;18.90;94.20;;;;;;5018265;28;20488;-86
2022/06/26 07:08:15;;;;;;;4.00;2.03;;;18.90;94.30;;;;;;4990059;28;20045;-85
2022/06/26 07:10:41;;;;;;;4.13;2.15;;;19.00;94.40;;;;;;4980423;28;21073;-84
2022/06/26 07:13:06;;;;;;;4.00;2.00;;;19.00;94.50;;;;;;4968146;28;20041;-85
2022/06/26 07:15:32;;;;;;;5.05;2.10;;;19.00;94.60;;;;;;5026070;28;20033;-84
2022/06/26 07:17:57;;;;;;;4.37;2.00;;;19.00;94.50;;;;;;5017237;28;20142;-85
2022/06/26 07:20:23;;;;;;;3.53;2.20;;;19.10;94.60;;;;;;4991274;28;20033;-86
2022/06/26 07:22:49;;;;;;;3.63;2.10;;;19.10;94.60;;;;;;5016168;28;20042;-87
2022/06/26 07:25:15;;;;;;;4.78;2.00;;;19.20;94.70;;;;;;5029430;28;20538;-85
2022/06/26 07:27:40;;;;;;;4.97;2.20;;;19.20;94.80;;;;;;5012800;28;20504;-85
2022/06/26 07:30:06;;;;;;;6.50;2.20;;;19.30;94.80;;;;;;4993736;28;20070;-86
2022/06/26 07:32:32;;;;;;;3.35;2.10;;;19.30;94.70;;;;;;4997973;28;20445;-84
2022/06/26 07:34:59;;;;;;;4.88;2.17;;;19.40;94.70;;;;;;4991800;28;22236;-86
2022/06/26 07:37:25;;;;;;;4.93;2.45;;;19.40;94.50;;;;;;5004632;28;20033;-85
2022/06/26 07:39:51;;;;;;;3.47;1.97;;;19.40;94.40;;;;;;4996408;28;20044;-84
2022/06/26 07:42:16;;;;;;;4.65;2.10;;;19.50;94.50;;;;;;4988747;28;20065;-85
2022/06/26 07:44:42;;;;;;;4.30;2.00;;;19.50;94.60;;;;;;4977243;28;20105;-84
2022/06/26 07:47:07;;;;;;;3.30;2.00;;;19.50;94.60;;;;;;5003991;28;20037;-85
2022/06/26 07:49:33;;;;;;;4.25;2.13;;;19.60;94.40;;;;;;4991332;28;20034;-86
2022/06/26 07:51:59;;;;;;;5.07;2.60;;;19.60;94.20;;;;;;4982556;28;20516;-86
2022/06/26 07:54:24;;;;;;;3.20;1.85;;;19.60;94.30;;;;;;4969957;28;20041;-86
2022/06/26 07:56:50;;;;;;;6.17;2.40;;;19.60;94.40;;;;;;5009429;28;20747;-85
2022/06/26 07:59:16;;;;;;;4.07;2.40;;;19.70;94.50;;;;;;4975140;28;20060;-84
2022/06/26 08:01:42;;;;;;;4.22;2.35;;;19.70;94.60;;;;;;5029320;28;20082;-85
2022/06/26 08:04:09;;;;;;;4.87;2.40;;;19.80;94.60;;;;;;5005622;28;20041;-86
2022/06/26 08:06:35;;;;;;;4.25;2.38;;;19.80;94.70;;;;;;5022512;28;20594;-85
2022/06/26 08:09:01;;;;;;;4.28;2.20;;;20.00;94.80;;;;;;5004619;28;20045;-86
2022/06/26 08:11:26;;;;;;;4.37;2.10;;;20.00;94.70;;;;;;4989876;28;20063;-85
2022/06/26 08:13:52;;;;;;;4.10;2.30;;;20.00;94.70;;;;;;5005989;28;20323;-85
2022/06/26 08:16:18;;;;;;;5.70;2.63;;;20.10;94.70;;;;;;4990254;28;20209;-86
2022/06/26 08:18:44;;;;;;;5.10;2.20;;;20.20;94.60;;;;;;4981760;28;20126;-86
2022/06/26 08:23:56;;;;;;;4.90;2.20;;;20.30;94.60;;;;;;4967691;28;20049;-80
2022/06/26 08:26:22;;;;;;;4.53;2.60;;;20.40;94.80;;;;;;5009404;28;20029;-80
2022/06/26 08:28:48;;;;;;;5.07;2.50;;;20.50;94.80;;;;;;5009926;28;20055;-80
2022/06/26 08:31:14;;;;;;;5.20;2.25;;;20.60;94.70;;;;;;4992345;28;20228;-79
2022/06/26 08:33:40;;;;;;;4.30;2.50;;;20.60;94.60;;;;;;5004744;28;20112;-81
2022/06/26 08:36:06;;;;;;;5.20;3.00;;;20.70;94.50;;;;;;5027092;28;20977;-80
2022/06/26 08:38:32;;;;;;;5.15;2.80;;;20.70;94.40;;;;;;5009393;28;20033;-80
2022/06/26 08:40:59;;;;;;;5.35;2.92;;;20.80;94.20;;;;;;5002897;28;20037;-81
2022/06/26 08:43:26;;;;;;;5.95;2.70;;;20.80;94.00;;;;;;4992839;28;20033;-82
2022/06/26 08:45:53;;;;;;;5.60;2.97;;;20.80;94.10;;;;;;4980681;28;20064;-80
2022/06/26 08:48:20;;;;;;;4.85;2.67;;;20.80;94.20;;;;;;4987971;28;20144;-81
